sensor_id;sensor_type;location;lat;lon;timestamp;P1;durP1;ratioP1;P2;durP2;ratioP2
37355;SDS011;48747;50.250;18.848;2023-05-10T00:01:21;9.40;;;4.87;;
37355;SDS011;48747;50.250;18.848;2023-05-10T00:03:26;8.28;;;5.37;;
37355;SDS011;48747;50.250;18.848;2023-05-10T00:05:29;9.78;;;5.15;;
37355;SDS011;48747;50.250;18.848;2023-05-10T00:07:33;9.00;;;5.35;;
37355;SDS011;48747;50.250;18.848;2023-05-10T00:09:40;10.38;;;4.97;;
37355;SDS011;48747;50.250;18.848;2023-05-10T00:11:44;9.18;;;5.00;;
37355;SDS011;48747;50.250;18.848;2023-05-10T00:13:47;11.22;;;5.00;;
37355;SDS011;48747;50.250;18.848;2023-05-10T00:15:50;10.78;;;5.00;;
37355;SDS011;48747;50.250;18.848;2023-05-10T00:17:53;10.45;;;4.92;;
37355;SDS011;48747;50.250;18.848;2023-05-10T00:19:56;9.13;;;5.20;;
37355;SDS011;48747;50.250;18.848;2023-05-10T00:21:59;9.33;;;5.35;;
37355;SDS011;48747;50.250;18.848;2023-05-10T00:24:04;9.70;;;5.47;;
37355;SDS011;48747;50.250;18.848;2023-05-10T00:26:07;11.18;;;5.80;;
37355;SDS011;48747;50.250;18.848;2023-05-10T00:28:11;9.48;;;5.03;;
37355;SDS011;48747;50.250;18.848;2023-05-10T00:30:14;8.73;;;5.33;;
37355;SDS011;48747;50.250;18.848;2023-05-10T00:32:17;9.80;;;5.05;;
37355;SDS011;48747;50.250;18.848;2023-05-10T00:34:22;8.08;;;4.85;;
37355;SDS011;48747;50.250;18.848;2023-05-10T00:36:25;10.10;;;5.62;;
37355;SDS011;48747;50.250;18.848;2023-05-10T00:38:36;8.00;;;5.00;;
37355;SDS011;48747;50.250;18.848;2023-05-10T00:40:35;9.33;;;4.95;;
37355;SDS011;48747;50.250;18.848;2023-05-10T00:42:40;9.35;;;5.08;;
37355;SDS011;48747;50.250;18.848;2023-05-10T00:44:45;13.05;;;5.72;;
37355;SDS011;48747;50.250;18.848;2023-05-10T00:46:51;8.70;;;4.92;;
37355;SDS011;48747;50.250;18.848;2023-05-10T00:48:58;10.90;;;5.65;;
37355;SDS011;48747;50.250;18.848;2023-05-10T00:51:03;12.10;;;5.08;;
37355;SDS011;48747;50.250;18.848;2023-05-10T00:53:06;11.08;;;5.80;;
37355;SDS011;48747;50.250;18.848;2023-05-10T00:55:10;9.73;;;5.28;;
37355;SDS011;48747;50.250;18.848;2023-05-10T00:57:14;11.18;;;4.95;;
37355;SDS011;48747;50.250;18.848;2023-05-10T00:59:18;10.88;;;5.87;;
37355;SDS011;48747;50.250;18.848;2023-05-10T01:01:21;11.50;;;5.65;;
37355;SDS011;48747;50.250;18.848;2023-05-10T01:03:25;9.93;;;5.40;;
37355;SDS011;48747;50.250;18.848;2023-05-10T01:05:28;10.05;;;5.62;;
37355;SDS011;48747;50.250;18.848;2023-05-10T01:07:31;10.50;;;5.30;;
37355;SDS011;48747;50.250;18.848;2023-05-10T01:09:36;9.18;;;5.83;;
37355;SDS011;48747;50.250;18.848;2023-05-10T01:11:42;10.80;;;4.80;;
37355;SDS011;48747;50.250;18.848;2023-05-10T01:13:46;10.23;;;5.60;;
37355;SDS011;48747;50.250;18.848;2023-05-10T01:15:57;10.03;;;5.58;;
37355;SDS011;48747;50.250;18.848;2023-05-10T01:17:56;10.68;;;5.47;;
37355;SDS011;48747;50.250;18.848;2023-05-10T01:20:00;8.70;;;5.00;;
37355;SDS011;48747;50.250;18.848;2023-05-10T01:29:19;10.98;;;5.47;;
37355;SDS011;48747;50.250;18.848;2023-05-10T01:34:06;8.48;;;5.10;;
37355;SDS011;48747;50.250;18.848;2023-05-10T01:38:55;12.82;;;5.37;;
37355;SDS011;48747;50.250;18.848;2023-05-10T01:41:14;10.33;;;5.70;;
37355;SDS011;48747;50.250;18.848;2023-05-10T01:43:21;10.95;;;5.08;;
37355;SDS011;48747;50.250;18.848;2023-05-10T01:45:39;8.25;;;4.97;;
37355;SDS011;48747;50.250;18.848;2023-05-10T01:48:06;11.60;;;5.33;;
37355;SDS011;48747;50.250;18.848;2023-05-10T01:50:16;8.53;;;5.20;;
37355;SDS011;48747;50.250;18.848;2023-05-10T01:52:30;8.43;;;4.87;;
37355;SDS011;48747;50.250;18.848;2023-05-10T01:54:29;9.55;;;5.33;;
37355;SDS011;48747;50.250;18.848;2023-05-10T01:56:35;11.55;;;5.28;;
37355;SDS011;48747;50.250;18.848;2023-05-10T01:58:39;9.30;;;4.90;;
37355;SDS011;48747;50.250;18.848;2023-05-10T02:00:47;11.83;;;5.78;;
37355;SDS011;48747;50.250;18.848;2023-05-10T02:02:54;9.55;;;5.35;;
37355;SDS011;48747;50.250;18.848;2023-05-10T02:04:58;10.38;;;5.15;;
37355;SDS011;48747;50.250;18.848;2023-05-10T02:07:03;10.05;;;5.40;;
37355;SDS011;48747;50.250;18.848;2023-05-10T02:09:07;10.13;;;5.42;;
37355;SDS011;48747;50.250;18.848;2023-05-10T02:11:13;12.10;;;4.97;;
37355;SDS011;48747;50.250;18.848;2023-05-10T02:13:18;10.38;;;5.35;;
37355;SDS011;48747;50.250;18.848;2023-05-10T02:15:22;9.90;;;4.92;;
37355;SDS011;48747;50.250;18.848;2023-05-10T02:17:26;9.13;;;4.75;;
37355;SDS011;48747;50.250;18.848;2023-05-10T02:19:32;9.60;;;4.90;;
37355;SDS011;48747;50.250;18.848;2023-05-10T02:21:37;11.43;;;5.37;;
37355;SDS011;48747;50.250;18.848;2023-05-10T02:23:42;10.72;;;4.92;;
37355;SDS011;48747;50.250;18.848;2023-05-10T02:25:47;9.73;;;4.92;;
37355;SDS011;48747;50.250;18.848;2023-05-10T02:27:51;12.15;;;5.30;;
37355;SDS011;48747;50.250;18.848;2023-05-10T02:29:57;11.38;;;5.47;;
37355;SDS011;48747;50.250;18.848;2023-05-10T02:32:03;11.15;;;5.33;;
37355;SDS011;48747;50.250;18.848;2023-05-10T02:34:08;10.00;;;4.87;;
37355;SDS011;48747;50.250;18.848;2023-05-10T02:36:12;10.72;;;5.10;;
37355;SDS011;48747;50.250;18.848;2023-05-10T02:38:19;11.08;;;5.20;;
37355;SDS011;48747;50.250;18.848;2023-05-10T02:40:24;11.95;;;4.85;;
37355;SDS011;48747;50.250;18.848;2023-05-10T02:42:31;8.65;;;5.28;;
37355;SDS011;48747;50.250;18.848;2023-05-10T02:44:37;9.20;;;5.12;;
37355;SDS011;48747;50.250;18.848;2023-05-10T02:46:42;12.28;;;4.83;;
37355;SDS011;48747;50.250;18.848;2023-05-10T02:48:49;11.65;;;5.47;;
37355;SDS011;48747;50.250;18.848;2023-05-10T02:50:52;9.18;;;4.87;;
37355;SDS011;48747;50.250;18.848;2023-05-10T02:52:59;13.53;;;5.28;;
37355;SDS011;48747;50.250;18.848;2023-05-10T02:55:03;10.80;;;5.17;;
37355;SDS011;48747;50.250;18.848;2023-05-10T02:57:09;9.23;;;5.45;;
37355;SDS011;48747;50.250;18.848;2023-05-10T02:59:16;8.95;;;5.00;;
37355;SDS011;48747;50.250;18.848;2023-05-10T03:01:21;9.60;;;5.55;;
37355;SDS011;48747;50.250;18.848;2023-05-10T03:03:25;9.38;;;5.42;;
37355;SDS011;48747;50.250;18.848;2023-05-10T03:05:28;17.45;;;5.85;;
37355;SDS011;48747;50.250;18.848;2023-05-10T03:07:33;11.18;;;5.67;;
37355;SDS011;48747;50.250;18.848;2023-05-10T03:09:38;8.95;;;5.28;;
37355;SDS011;48747;50.250;18.848;2023-05-10T03:11:56;10.78;;;5.40;;
37355;SDS011;48747;50.250;18.848;2023-05-10T03:16:47;8.70;;;5.28;;
37355;SDS011;48747;50.250;18.848;2023-05-10T03:19:12;10.48;;;5.00;;
37355;SDS011;48747;50.250;18.848;2023-05-10T03:21:19;9.28;;;5.20;;
37355;SDS011;48747;50.250;18.848;2023-05-10T03:23:27;9.93;;;5.37;;
37355;SDS011;48747;50.250;18.848;2023-05-10T03:27:43;12.37;;;4.95;;
37355;SDS011;48747;50.250;18.848;2023-05-10T03:29:53;8.33;;;5.08;;
37355;SDS011;48747;50.250;18.848;2023-05-10T03:31:54;11.03;;;5.15;;
37355;SDS011;48747;50.250;18.848;2023-05-10T03:34:00;9.63;;;5.00;;
37355;SDS011;48747;50.250;18.848;2023-05-10T03:36:09;11.97;;;5.60;;
37355;SDS011;48747;50.250;18.848;2023-05-10T03:38:09;12.95;;;5.90;;
37355;SDS011;48747;50.250;18.848;2023-05-10T03:40:15;9.10;;;5.10;;
37355;SDS011;48747;50.250;18.848;2023-05-10T03:42:23;9.08;;;5.08;;
37355;SDS011;48747;50.250;18.848;2023-05-10T03:44:28;9.23;;;5.50;;
37355;SDS011;48747;50.250;18.848;2023-05-10T03:46:35;13.50;;;6.28;;
37355;SDS011;48747;50.250;18.848;2023-05-10T03:48:43;10.18;;;5.62;;
37355;SDS011;48747;50.250;18.848;2023-05-10T03:50:46;9.00;;;5.08;;
37355;SDS011;48747;50.250;18.848;2023-05-10T03:52:50;11.43;;;5.30;;
37355;SDS011;48747;50.250;18.848;2023-05-10T03:54:56;9.35;;;5.50;;
37355;SDS011;48747;50.250;18.848;2023-05-10T03:57:00;10.45;;;5.40;;
37355;SDS011;48747;50.250;18.848;2023-05-10T03:59:04;9.55;;;5.37;;
37355;SDS011;48747;50.250;18.848;2023-05-10T04:01:10;12.80;;;5.50;;
37355;SDS011;48747;50.250;18.848;2023-05-10T04:03:13;11.95;;;5.90;;
37355;SDS011;48747;50.250;18.848;2023-05-10T04:05:16;13.60;;;5.35;;
37355;SDS011;48747;50.250;18.848;2023-05-10T04:07:19;8.45;;;5.25;;
37355;SDS011;48747;50.250;18.848;2023-05-10T04:09:24;9.25;;;5.60;;
37355;SDS011;48747;50.250;18.848;2023-05-10T04:11:27;9.93;;;5.25;;
37355;SDS011;48747;50.250;18.848;2023-05-10T04:13:36;10.72;;;5.10;;
37355;SDS011;48747;50.250;18.848;2023-05-10T04:15:38;13.22;;;6.92;;
37355;SDS011;48747;50.250;18.848;2023-05-10T04:17:45;10.55;;;5.50;;
37355;SDS011;48747;50.250;18.848;2023-05-10T04:19:48;11.83;;;6.15;;
37355;SDS011;48747;50.250;18.848;2023-05-10T04:21:52;8.63;;;5.20;;
37355;SDS011;48747;50.250;18.848;2023-05-10T04:24:00;9.55;;;5.45;;
37355;SDS011;48747;50.250;18.848;2023-05-10T04:26:08;13.62;;;5.83;;
37355;SDS011;48747;50.250;18.848;2023-05-10T04:28:11;11.45;;;5.40;;
37355;SDS011;48747;50.250;18.848;2023-05-10T04:30:14;11.68;;;5.92;;
37355;SDS011;48747;50.250;18.848;2023-05-10T04:32:20;12.68;;;6.75;;
37355;SDS011;48747;50.250;18.848;2023-05-10T04:34:24;12.15;;;5.37;;
37355;SDS011;48747;50.250;18.848;2023-05-10T04:36:29;11.12;;;6.20;;
37355;SDS011;48747;50.250;18.848;2023-05-10T04:38:33;14.73;;;5.42;;
37355;SDS011;48747;50.250;18.848;2023-05-10T04:40:38;10.25;;;5.35;;
37355;SDS011;48747;50.250;18.848;2023-05-10T04:42:43;10.88;;;5.90;;
37355;SDS011;48747;50.250;18.848;2023-05-10T04:44:48;12.33;;;5.85;;
37355;SDS011;48747;50.250;18.848;2023-05-10T04:46:57;10.98;;;5.87;;
37355;SDS011;48747;50.250;18.848;2023-05-10T04:48:56;12.28;;;5.75;;
37355;SDS011;48747;50.250;18.848;2023-05-10T04:51:01;12.93;;;5.60;;
37355;SDS011;48747;50.250;18.848;2023-05-10T04:53:05;16.23;;;5.83;;
37355;SDS011;48747;50.250;18.848;2023-05-10T04:55:12;12.95;;;6.03;;
37355;SDS011;48747;50.250;18.848;2023-05-10T04:57:12;13.68;;;6.00;;
37355;SDS011;48747;50.250;18.848;2023-05-10T04:59:16;13.32;;;5.55;;
37355;SDS011;48747;50.250;18.848;2023-05-10T05:01:19;13.10;;;5.72;;
37355;SDS011;48747;50.250;18.848;2023-05-10T05:03:22;16.27;;;6.37;;
37355;SDS011;48747;50.250;18.848;2023-05-10T05:05:25;11.05;;;5.65;;
37355;SDS011;48747;50.250;18.848;2023-05-10T05:07:28;10.98;;;5.70;;
37355;SDS011;48747;50.250;18.848;2023-05-10T05:09:32;11.20;;;5.45;;
37355;SDS011;48747;50.250;18.848;2023-05-10T05:11:35;9.13;;;4.97;;
37355;SDS011;48747;50.250;18.848;2023-05-10T05:13:39;11.55;;;5.50;;
37355;SDS011;48747;50.250;18.848;2023-05-10T05:15:42;11.43;;;5.33;;
37355;SDS011;48747;50.250;18.848;2023-05-10T05:17:46;10.70;;;5.40;;
37355;SDS011;48747;50.250;18.848;2023-05-10T05:19:49;10.35;;;5.95;;
37355;SDS011;48747;50.250;18.848;2023-05-10T05:21:57;12.07;;;5.83;;
37355;SDS011;48747;50.250;18.848;2023-05-10T05:23:58;14.68;;;5.35;;
37355;SDS011;48747;50.250;18.848;2023-05-10T05:26:02;9.80;;;5.00;;
37355;SDS011;48747;50.250;18.848;2023-05-10T05:28:05;11.25;;;5.22;;
37355;SDS011;48747;50.250;18.848;2023-05-10T05:30:11;11.05;;;5.35;;
37355;SDS011;48747;50.250;18.848;2023-05-10T05:32:13;11.22;;;5.30;;
37355;SDS011;48747;50.250;18.848;2023-05-10T05:34:16;13.70;;;5.22;;
37355;SDS011;48747;50.250;18.848;2023-05-10T05:36:21;8.33;;;4.60;;
37355;SDS011;48747;50.250;18.848;2023-05-10T05:38:26;10.35;;;4.87;;
37355;SDS011;48747;50.250;18.848;2023-05-10T05:40:29;10.20;;;5.55;;
37355;SDS011;48747;50.250;18.848;2023-05-10T05:42:32;10.25;;;5.12;;
37355;SDS011;48747;50.250;18.848;2023-05-10T05:44:36;11.10;;;4.90;;
37355;SDS011;48747;50.250;18.848;2023-05-10T05:46:40;14.40;;;5.00;;
37355;SDS011;48747;50.250;18.848;2023-05-10T05:48:45;13.48;;;5.28;;
37355;SDS011;48747;50.250;18.848;2023-05-10T05:50:54;12.73;;;4.72;;
37355;SDS011;48747;50.250;18.848;2023-05-10T05:53:03;10.40;;;4.62;;
37355;SDS011;48747;50.250;18.848;2023-05-10T05:55:02;7.42;;;4.37;;
37355;SDS011;48747;50.250;18.848;2023-05-10T05:57:06;8.15;;;4.40;;
37355;SDS011;48747;50.250;18.848;2023-05-10T05:59:11;9.85;;;4.80;;
37355;SDS011;48747;50.250;18.848;2023-05-10T06:01:14;9.08;;;4.30;;
37355;SDS011;48747;50.250;18.848;2023-05-10T06:03:17;9.85;;;4.37;;
37355;SDS011;48747;50.250;18.848;2023-05-10T06:05:22;8.50;;;4.30;;
37355;SDS011;48747;50.250;18.848;2023-05-10T06:07:28;8.18;;;4.00;;
37355;SDS011;48747;50.250;18.848;2023-05-10T06:09:31;13.25;;;4.92;;
37355;SDS011;48747;50.250;18.848;2023-05-10T06:11:35;15.18;;;4.37;;
37355;SDS011;48747;50.250;18.848;2023-05-10T06:13:38;14.80;;;4.42;;
37355;SDS011;48747;50.250;18.848;2023-05-10T06:15:48;9.00;;;4.33;;
37355;SDS011;48747;50.250;18.848;2023-05-10T06:17:48;9.50;;;4.70;;
37355;SDS011;48747;50.250;18.848;2023-05-10T06:19:51;6.97;;;3.72;;
37355;SDS011;48747;50.250;18.848;2023-05-10T06:21:54;5.25;;;3.60;;
37355;SDS011;48747;50.250;18.848;2023-05-10T06:23:57;7.22;;;3.83;;
37355;SDS011;48747;50.250;18.848;2023-05-10T06:26:02;11.80;;;3.58;;
37355;SDS011;48747;50.250;18.848;2023-05-10T06:28:05;6.67;;;4.00;;
37355;SDS011;48747;50.250;18.848;2023-05-10T06:30:12;9.58;;;4.15;;
37355;SDS011;48747;50.250;18.848;2023-05-10T06:32:15;6.20;;;3.75;;
37355;SDS011;48747;50.250;18.848;2023-05-10T06:34:18;15.23;;;4.00;;
37355;SDS011;48747;50.250;18.848;2023-05-10T06:36:21;6.30;;;3.85;;
37355;SDS011;48747;50.250;18.848;2023-05-10T06:38:26;6.65;;;3.33;;
37355;SDS011;48747;50.250;18.848;2023-05-10T06:40:30;7.95;;;3.70;;
37355;SDS011;48747;50.250;18.848;2023-05-10T06:42:40;8.35;;;3.92;;
37355;SDS011;48747;50.250;18.848;2023-05-10T06:44:39;11.93;;;4.42;;
37355;SDS011;48747;50.250;18.848;2023-05-10T06:46:46;5.03;;;3.33;;
37355;SDS011;48747;50.250;18.848;2023-05-10T06:48:50;7.20;;;3.22;;
37355;SDS011;48747;50.250;18.848;2023-05-10T06:50:54;7.08;;;3.42;;
37355;SDS011;48747;50.250;18.848;2023-05-10T06:52:59;7.58;;;3.42;;
37355;SDS011;48747;50.250;18.848;2023-05-10T06:55:06;6.05;;;3.70;;
37355;SDS011;48747;50.250;18.848;2023-05-10T06:57:11;7.00;;;3.37;;
37355;SDS011;48747;50.250;18.848;2023-05-10T06:59:16;5.95;;;3.60;;
37355;SDS011;48747;50.250;18.848;2023-05-10T07:01:20;11.73;;;3.65;;
37355;SDS011;48747;50.250;18.848;2023-05-10T07:03:23;7.75;;;3.37;;
37355;SDS011;48747;50.250;18.848;2023-05-10T07:05:27;6.42;;;4.05;;
37355;SDS011;48747;50.250;18.848;2023-05-10T07:07:30;6.62;;;3.77;;
37355;SDS011;48747;50.250;18.848;2023-05-10T07:09:33;6.50;;;5.65;;
37355;SDS011;48747;50.250;18.848;2023-05-10T07:11:38;7.17;;;3.62;;
37355;SDS011;48747;50.250;18.848;2023-05-10T07:13:44;3.60;;;2.67;;
37355;SDS011;48747;50.250;18.848;2023-05-10T07:15:50;4.85;;;2.98;;
37355;SDS011;48747;50.250;18.848;2023-05-10T07:17:55;5.67;;;3.10;;
37355;SDS011;48747;50.250;18.848;2023-05-10T07:19:58;8.35;;;2.85;;
37355;SDS011;48747;50.250;18.848;2023-05-10T07:22:01;4.22;;;3.77;;
37355;SDS011;48747;50.250;18.848;2023-05-10T07:24:04;5.03;;;4.17;;
37355;SDS011;48747;50.250;18.848;2023-05-10T07:26:10;7.10;;;3.33;;
37355;SDS011;48747;50.250;18.848;2023-05-10T07:28:13;8.70;;;3.02;;
37355;SDS011;48747;50.250;18.848;2023-05-10T07:30:17;5.33;;;3.17;;
37355;SDS011;48747;50.250;18.848;2023-05-10T07:32:20;6.15;;;3.20;;
37355;SDS011;48747;50.250;18.848;2023-05-10T07:34:24;4.42;;;4.00;;
37355;SDS011;48747;50.250;18.848;2023-05-10T07:36:29;4.45;;;3.08;;
37355;SDS011;48747;50.250;18.848;2023-05-10T07:38:32;6.20;;;2.92;;
37355;SDS011;48747;50.250;18.848;2023-05-10T07:40:37;5.55;;;3.17;;
37355;SDS011;48747;50.250;18.848;2023-05-10T07:42:41;3.95;;;2.55;;
37355;SDS011;48747;50.250;18.848;2023-05-10T07:44:46;4.97;;;2.80;;
37355;SDS011;48747;50.250;18.848;2023-05-10T07:46:49;7.03;;;2.65;;
37355;SDS011;48747;50.250;18.848;2023-05-10T07:48:52;8.98;;;3.30;;
37355;SDS011;48747;50.250;18.848;2023-05-10T07:50:55;5.80;;;3.10;;
37355;SDS011;48747;50.250;18.848;2023-05-10T07:52:58;3.33;;;2.92;;
37355;SDS011;48747;50.250;18.848;2023-05-10T07:55:03;6.10;;;5.60;;
37355;SDS011;48747;50.250;18.848;2023-05-10T07:57:08;5.80;;;3.65;;
37355;SDS011;48747;50.250;18.848;2023-05-10T07:59:14;4.22;;;2.85;;
37355;SDS011;48747;50.250;18.848;2023-05-10T08:01:19;7.25;;;3.62;;
37355;SDS011;48747;50.250;18.848;2023-05-10T08:03:22;9.38;;;3.25;;
37355;SDS011;48747;50.250;18.848;2023-05-10T08:05:27;6.92;;;4.65;;
37355;SDS011;48747;50.250;18.848;2023-05-10T08:07:30;6.95;;;3.98;;
37355;SDS011;48747;50.250;18.848;2023-05-10T08:09:34;5.47;;;4.95;;
37355;SDS011;48747;50.250;18.848;2023-05-10T08:11:38;5.15;;;4.45;;
37355;SDS011;48747;50.250;18.848;2023-05-10T08:13:43;3.37;;;2.50;;
37355;SDS011;48747;50.250;18.848;2023-05-10T08:15:48;3.72;;;2.40;;
37355;SDS011;48747;50.250;18.848;2023-05-10T08:17:53;7.08;;;3.17;;
37355;SDS011;48747;50.250;18.848;2023-05-10T08:19:56;5.25;;;2.67;;
37355;SDS011;48747;50.250;18.848;2023-05-10T08:22:01;7.90;;;5.42;;
37355;SDS011;48747;50.250;18.848;2023-05-10T08:24:05;7.62;;;6.55;;
37355;SDS011;48747;50.250;18.848;2023-05-10T08:26:09;6.00;;;5.50;;
37355;SDS011;48747;50.250;18.848;2023-05-10T08:28:12;7.78;;;6.30;;
37355;SDS011;48747;50.250;18.848;2023-05-10T08:30:16;12.45;;;4.33;;
37355;SDS011;48747;50.250;18.848;2023-05-10T08:32:20;9.05;;;6.37;;
37355;SDS011;48747;50.250;18.848;2023-05-10T08:34:24;8.15;;;6.53;;
37355;SDS011;48747;50.250;18.848;2023-05-10T08:36:29;5.00;;;4.60;;
37355;SDS011;48747;50.250;18.848;2023-05-10T08:38:36;13.62;;;12.25;;
37355;SDS011;48747;50.250;18.848;2023-05-10T08:40:38;16.80;;;15.68;;
37355;SDS011;48747;50.250;18.848;2023-05-10T08:42:58;46.00;;;43.35;;
37355;SDS011;48747;50.250;18.848;2023-05-10T08:44:52;32.33;;;30.35;;
37355;SDS011;48747;50.250;18.848;2023-05-10T08:46:57;31.07;;;29.20;;
37355;SDS011;48747;50.250;18.848;2023-05-10T08:49:03;33.30;;;30.95;;
37355;SDS011;48747;50.250;18.848;2023-05-10T08:51:11;101.45;;;40.23;;
37355;SDS011;48747;50.250;18.848;2023-05-10T08:53:19;32.13;;;30.02;;
37355;SDS011;48747;50.250;18.848;2023-05-10T08:55:23;39.25;;;36.88;;
37355;SDS011;48747;50.250;18.848;2023-05-10T08:57:28;50.00;;;46.98;;
37355;SDS011;48747;50.250;18.848;2023-05-10T08:59:31;56.23;;;52.83;;
37355;SDS011;48747;50.250;18.848;2023-05-10T09:01:35;34.40;;;31.80;;
37355;SDS011;48747;50.250;18.848;2023-05-10T09:03:40;49.55;;;33.85;;
37355;SDS011;48747;50.250;18.848;2023-05-10T09:05:43;43.00;;;32.17;;
37355;SDS011;48747;50.250;18.848;2023-05-10T09:07:48;41.15;;;38.17;;
37355;SDS011;48747;50.250;18.848;2023-05-10T09:09:54;48.78;;;45.45;;
37355;SDS011;48747;50.250;18.848;2023-05-10T09:12:01;39.25;;;33.50;;
37355;SDS011;48747;50.250;18.848;2023-05-10T09:14:05;55.38;;;34.73;;
37355;SDS011;48747;50.250;18.848;2023-05-10T09:16:10;37.13;;;33.28;;
37355;SDS011;48747;50.250;18.848;2023-05-10T09:18:14;39.58;;;35.30;;
37355;SDS011;48747;50.250;18.848;2023-05-10T09:20:18;45.20;;;42.33;;
37355;SDS011;48747;50.250;18.848;2023-05-10T09:22:22;55.55;;;52.23;;
37355;SDS011;48747;50.250;18.848;2023-05-10T09:24:26;67.25;;;61.53;;
37355;SDS011;48747;50.250;18.848;2023-05-10T09:26:31;63.00;;;57.58;;
37355;SDS011;48747;50.250;18.848;2023-05-10T09:28:49;61.25;;;57.25;;
37355;SDS011;48747;50.250;18.848;2023-05-10T09:30:54;49.98;;;46.98;;
37355;SDS011;48747;50.250;18.848;2023-05-10T09:32:58;54.10;;;43.75;;
37355;SDS011;48747;50.250;18.848;2023-05-10T09:35:11;50.92;;;48.05;;
37355;SDS011;48747;50.250;18.848;2023-05-10T09:37:11;47.55;;;44.42;;
37355;SDS011;48747;50.250;18.848;2023-05-10T09:39:15;51.65;;;48.05;;
37355;SDS011;48747;50.250;18.848;2023-05-10T09:41:25;59.23;;;55.67;;
37355;SDS011;48747;50.250;18.848;2023-05-10T09:43:25;57.50;;;54.03;;
37355;SDS011;48747;50.250;18.848;2023-05-10T09:45:30;55.08;;;51.68;;
37355;SDS011;48747;50.250;18.848;2023-05-10T09:47:36;57.38;;;53.73;;
37355;SDS011;48747;50.250;18.848;2023-05-10T09:49:48;51.10;;;48.02;;
37355;SDS011;48747;50.250;18.848;2023-05-10T09:52:05;48.90;;;45.65;;
37355;SDS011;48747;50.250;18.848;2023-05-10T09:56:37;54.40;;;51.45;;
37355;SDS011;48747;50.250;18.848;2023-05-10T09:58:37;60.28;;;56.60;;
37355;SDS011;48747;50.250;18.848;2023-05-10T10:00:44;57.60;;;54.45;;
37355;SDS011;48747;50.250;18.848;2023-05-10T10:02:55;62.10;;;57.80;;
37355;SDS011;48747;50.250;18.848;2023-05-10T10:05:06;69.50;;;59.67;;
37355;SDS011;48747;50.250;18.848;2023-05-10T10:07:11;70.15;;;63.95;;
37355;SDS011;48747;50.250;18.848;2023-05-10T10:09:14;75.32;;;70.83;;
37355;SDS011;48747;50.250;18.848;2023-05-10T10:11:19;204.05;;;185.82;;
37355;SDS011;48747;50.250;18.848;2023-05-10T10:13:22;192.92;;;178.12;;
37355;SDS011;48747;50.250;18.848;2023-05-10T10:15:26;165.18;;;153.93;;
37355;SDS011;48747;50.250;18.848;2023-05-10T10:17:32;167.43;;;153.97;;
37355;SDS011;48747;50.250;18.848;2023-05-10T10:19:38;179.23;;;162.30;;
37355;SDS011;48747;50.250;18.848;2023-05-10T10:21:44;186.67;;;171.87;;
37355;SDS011;48747;50.250;18.848;2023-05-10T10:23:48;186.45;;;172.32;;
37355;SDS011;48747;50.250;18.848;2023-05-10T10:25:54;175.40;;;162.20;;
37355;SDS011;48747;50.250;18.848;2023-05-10T10:28:10;182.22;;;169.07;;
37355;SDS011;48747;50.250;18.848;2023-05-10T10:30:15;151.47;;;140.97;;
37355;SDS011;48747;50.250;18.848;2023-05-10T10:32:20;182.37;;;168.25;;
37355;SDS011;48747;50.250;18.848;2023-05-10T10:34:38;222.52;;;198.43;;
37355;SDS011;48747;50.250;18.848;2023-05-10T10:36:49;320.37;;;207.35;;
37355;SDS011;48747;50.250;18.848;2023-05-10T10:41:33;211.00;;;193.90;;
37355;SDS011;48747;50.250;18.848;2023-05-10T10:43:22;195.75;;;183.10;;
37355;SDS011;48747;50.250;18.848;2023-05-10T10:45:38;206.32;;;193.97;;
37355;SDS011;48747;50.250;18.848;2023-05-10T10:47:37;218.35;;;205.27;;
37355;SDS011;48747;50.250;18.848;2023-05-10T10:49:45;211.82;;;199.10;;
37355;SDS011;48747;50.250;18.848;2023-05-10T10:54:39;203.18;;;189.97;;
37355;SDS011;48747;50.250;18.848;2023-05-10T10:56:40;216.82;;;202.18;;
37355;SDS011;48747;50.250;18.848;2023-05-10T10:58:49;215.00;;;201.05;;
37355;SDS011;48747;50.250;18.848;2023-05-10T11:00:53;223.60;;;208.55;;
37355;SDS011;48747;50.250;18.848;2023-05-10T11:07:51;210.53;;;197.15;;
37355;SDS011;48747;50.250;18.848;2023-05-10T11:09:56;203.67;;;190.68;;
37355;SDS011;48747;50.250;18.848;2023-05-10T11:12:07;219.32;;;205.90;;
37355;SDS011;48747;50.250;18.848;2023-05-10T11:14:09;226.22;;;212.25;;
37355;SDS011;48747;50.250;18.848;2023-05-10T11:16:19;231.23;;;217.10;;
37355;SDS011;48747;50.250;18.848;2023-05-10T11:18:28;230.30;;;215.92;;
37355;SDS011;48747;50.250;18.848;2023-05-10T11:20:38;234.55;;;220.20;;
37355;SDS011;48747;50.250;18.848;2023-05-10T11:22:51;240.03;;;225.47;;
37355;SDS011;48747;50.250;18.848;2023-05-10T11:24:56;241.68;;;226.47;;
37355;SDS011;48747;50.250;18.848;2023-05-10T11:27:02;249.18;;;234.07;;
37355;SDS011;48747;50.250;18.848;2023-05-10T11:29:05;234.77;;;219.70;;
37355;SDS011;48747;50.250;18.848;2023-05-10T11:31:10;227.38;;;212.72;;
37355;SDS011;48747;50.250;18.848;2023-05-10T11:33:19;213.57;;;200.25;;
37355;SDS011;48747;50.250;18.848;2023-05-10T11:35:22;209.15;;;195.70;;
37355;SDS011;48747;50.250;18.848;2023-05-10T11:37:28;237.17;;;222.48;;
37355;SDS011;48747;50.250;18.848;2023-05-10T11:39:32;202.07;;;188.97;;
37355;SDS011;48747;50.250;18.848;2023-05-10T11:41:37;199.50;;;186.57;;
37355;SDS011;48747;50.250;18.848;2023-05-10T11:43:41;204.80;;;191.80;;
37355;SDS011;48747;50.250;18.848;2023-05-10T11:45:44;200.75;;;187.47;;
37355;SDS011;48747;50.250;18.848;2023-05-10T11:47:48;171.55;;;160.25;;
37355;SDS011;48747;50.250;18.848;2023-05-10T11:49:53;182.57;;;170.15;;
37355;SDS011;48747;50.250;18.848;2023-05-10T11:52:10;191.53;;;178.20;;
37355;SDS011;48747;50.250;18.848;2023-05-10T11:54:11;176.80;;;164.70;;
37355;SDS011;48747;50.250;18.848;2023-05-10T11:56:16;179.65;;;167.90;;
37355;SDS011;48747;50.250;18.848;2023-05-10T11:58:19;184.90;;;172.30;;
37355;SDS011;48747;50.250;18.848;2023-05-10T12:00:24;168.20;;;157.47;;
37355;SDS011;48747;50.250;18.848;2023-05-10T12:02:30;155.87;;;145.22;;
37355;SDS011;48747;50.250;18.848;2023-05-10T12:04:33;159.10;;;148.75;;
37355;SDS011;48747;50.250;18.848;2023-05-10T12:06:37;169.30;;;157.72;;
37355;SDS011;48747;50.250;18.848;2023-05-10T12:08:45;180.05;;;167.77;;
37355;SDS011;48747;50.250;18.848;2023-05-10T12:10:51;168.82;;;157.57;;
37355;SDS011;48747;50.250;18.848;2023-05-10T12:12:57;113.47;;;106.25;;
37355;SDS011;48747;50.250;18.848;2023-05-10T12:15:01;128.02;;;119.90;;
37355;SDS011;48747;50.250;18.848;2023-05-10T12:17:04;130.15;;;121.97;;
37355;SDS011;48747;50.250;18.848;2023-05-10T12:19:12;119.45;;;111.90;;
37355;SDS011;48747;50.250;18.848;2023-05-10T12:21:14;129.85;;;121.37;;
37355;SDS011;48747;50.250;18.848;2023-05-10T12:23:17;137.47;;;128.70;;
37355;SDS011;48747;50.250;18.848;2023-05-10T12:25:29;121.53;;;113.60;;
37355;SDS011;48747;50.250;18.848;2023-05-10T12:27:31;36.85;;;33.88;;
37355;SDS011;48747;50.250;18.848;2023-05-10T12:29:36;34.45;;;32.15;;
37355;SDS011;48747;50.250;18.848;2023-05-10T12:31:57;39.78;;;37.33;;
37355;SDS011;48747;50.250;18.848;2023-05-10T12:33:59;40.80;;;37.85;;
37355;SDS011;48747;50.250;18.848;2023-05-10T12:36:01;32.95;;;30.75;;
37355;SDS011;48747;50.250;18.848;2023-05-10T12:38:22;28.12;;;26.23;;
37355;SDS011;48747;50.250;18.848;2023-05-10T12:40:11;29.72;;;27.93;;